Main page
METAR-TAF:

METAR-TAF

Airports :

Aba Tenna Dejazmach Yilma International Airport

Dire Dawa, Ethiopia

latitude: 09-36N, longitude: 041-52E, elevation: 1146 m

METAR: missing

Time: 15:25 (12:25 UTC)

Forecast

The report was made 2 hours and 55 minutes ago, at 09:30 UTC
Forecast valid from 29 at 12 UTC to 30 at 18 UTC
Wind 8 kt from the North
Visibility 10 km or more
Scattered clouds at a height of 7000 ft

TAF: HADR 290930Z 2912/3018 36008KT 9999 SCT070

Weather observations and forecasts of more than 4000 airports (METAR and TAF reports).

The available stations are represented by yellow and red dots on the map.

Hover mouse over dot to see the name of the station.

Then click to see weather observations and forecasts.

To change the map : click on the green buttons with a black cross to zoom in, on the green button with a dash to zoom out, or on the green arrows for adjacent maps.


METAR-TAF: